createdAt,value
2024-05-09T00:01:16.362Z,100476.00
2024-05-09T00:02:48.489Z,100480.00
2024-05-09T00:04:20.538Z,100476.00
2024-05-09T00:05:52.799Z,100481.00
2024-05-09T00:07:24.819Z,100474.00
2024-05-09T00:08:56.853Z,100481.00
2024-05-09T00:10:35.586Z,100475.00
2024-05-09T00:12:10.267Z,100486.00
2024-05-09T00:13:42.648Z,100470.00
2024-05-09T00:15:14.816Z,100474.00
2024-05-09T00:16:49.515Z,100470.00
2024-05-09T00:18:21.754Z,100470.00
2024-05-09T00:19:53.993Z,100470.00
2024-05-09T00:21:26.062Z,100473.00
2024-05-09T00:22:58.123Z,100468.00
2024-05-09T00:24:30.209Z,100476.00
2024-05-09T00:26:02.322Z,100471.00
2024-05-09T00:27:35.679Z,100470.00
2024-05-09T00:29:07.766Z,100476.00
2024-05-09T00:30:40.003Z,100462.00
2024-05-09T00:32:12.315Z,100469.00
2024-05-09T00:33:44.608Z,100475.00
2024-05-09T00:35:16.844Z,100468.00
2024-05-09T00:36:48.958Z,100463.00
2024-05-09T00:38:21.151Z,100473.00
2024-05-09T00:39:53.335Z,100472.00
2024-05-09T00:41:25.439Z,100466.00
2024-05-09T00:42:57.523Z,100466.00
2024-05-09T00:44:29.726Z,100470.00
2024-05-09T00:46:02.520Z,100468.00
2024-05-09T00:47:34.808Z,100474.00
2024-05-09T00:49:07.296Z,100471.00
2024-05-09T00:50:42.403Z,100472.00
2024-05-09T00:52:14.641Z,100480.00
2024-05-09T00:53:47.311Z,100472.00
2024-05-09T00:55:19.858Z,100464.00
2024-05-09T00:56:53.425Z,100464.00
2024-05-09T00:58:28.941Z,100468.00
2024-05-09T01:00:01.598Z,100473.00
2024-05-09T01:01:35.202Z,100461.00
2024-05-09T01:03:12.536Z,100460.00
2024-05-09T01:04:46.245Z,100466.00
2024-05-09T01:06:21.366Z,100453.00
2024-05-09T01:07:53.550Z,100459.00
2024-05-09T01:09:25.626Z,100464.00
2024-05-09T01:10:57.914Z,100464.00
2024-05-09T01:12:30.019Z,100455.00
2024-05-09T01:14:02.231Z,100462.00
2024-05-09T01:15:35.645Z,100470.00
2024-05-09T01:17:08.605Z,100469.00
2024-05-09T01:18:41.011Z,100471.00
2024-05-09T01:20:19.995Z,100470.00
2024-05-09T01:21:59.367Z,100462.00
2024-05-09T01:23:31.589Z,100473.00
2024-05-09T01:25:04.017Z,100468.00
2024-05-09T01:26:36.146Z,100476.00
2024-05-09T01:28:08.278Z,100465.00
2024-05-09T01:29:40.355Z,100468.00
2024-05-09T01:31:15.826Z,100471.00
2024-05-09T01:32:47.989Z,100473.00
2024-05-09T01:34:20.204Z,100468.00
2024-05-09T01:35:52.378Z,100468.00
2024-05-09T01:37:24.362Z,100469.00
2024-05-09T01:38:56.562Z,100472.00
2024-05-09T01:40:36.653Z,100471.00
2024-05-09T01:42:11.447Z,100469.00
2024-05-09T01:43:43.559Z,100468.00
2024-05-09T01:45:15.766Z,100476.00
2024-05-09T01:46:47.803Z,100466.00
2024-05-09T01:48:20.043Z,100468.00
2024-05-09T01:49:52.232Z,100463.00
2024-05-09T01:51:24.389Z,100462.00
2024-05-09T01:52:56.475Z,100468.00
2024-05-09T01:54:28.714Z,100455.00
2024-05-09T01:56:00.910Z,100449.00
2024-05-09T01:57:33.136Z,100461.00
2024-05-09T01:59:06.756Z,100461.00
2024-05-09T02:00:42.287Z,100464.00
2024-05-09T02:02:15.671Z,100456.00
2024-05-09T02:03:48.194Z,100454.00
2024-05-09T02:05:20.426Z,100460.00
2024-05-09T02:06:52.508Z,100456.00
2024-05-09T02:08:24.620Z,100454.00
2024-05-09T02:09:56.712Z,100464.00
2024-05-09T02:11:28.753Z,100459.00
2024-05-09T02:13:01.139Z,100445.00
2024-05-09T02:14:33.310Z,100452.00
2024-05-09T02:16:11.721Z,100454.00
2024-05-09T02:17:44.099Z,100453.00
2024-05-09T02:19:16.662Z,100454.00
2024-05-09T02:20:49.009Z,100453.00
2024-05-09T02:22:21.166Z,100460.00
2024-05-09T02:23:53.168Z,100455.00
2024-05-09T02:25:27.036Z,100454.00
2024-05-09T02:26:59.030Z,100459.00
2024-05-09T02:28:31.144Z,100455.00
2024-05-09T02:30:04.692Z,100459.00
2024-05-09T02:31:39.855Z,100458.00
2024-05-09T02:33:14.018Z,100454.00
2024-05-09T02:34:46.761Z,100451.00
2024-05-09T02:36:18.812Z,100470.00
2024-05-09T02:37:50.922Z,100467.00
2024-05-09T02:39:23.064Z,100462.00
2024-05-09T02:40:55.168Z,100461.00
2024-05-09T02:42:27.227Z,100453.00
2024-05-09T02:43:59.295Z,100450.00
2024-05-09T02:45:31.391Z,100450.00
2024-05-09T02:47:03.647Z,100456.00
2024-05-09T02:48:35.758Z,100457.00
2024-05-09T02:50:08.443Z,100450.00
2024-05-09T02:51:40.531Z,100447.00
2024-05-09T02:53:14.062Z,100454.00
2024-05-09T02:54:46.431Z,100456.00
2024-05-09T02:56:18.532Z,100452.00
2024-05-09T02:57:50.569Z,100460.00
2024-05-09T02:59:22.951Z,100450.00
2024-05-09T03:00:55.113Z,100456.00
2024-05-09T03:02:27.251Z,100453.00
2024-05-09T03:03:59.486Z,100452.00
2024-05-09T03:05:32.043Z,100451.00
2024-05-09T03:07:04.511Z,100459.00
2024-05-09T03:08:36.653Z,100450.00
2024-05-09T03:10:18.163Z,100456.00
2024-05-09T03:11:54.715Z,100452.00
2024-05-09T03:13:26.836Z,100448.00
2024-05-09T03:14:58.884Z,100447.00
2024-05-09T03:16:30.889Z,100451.00
2024-05-09T03:18:04.190Z,100451.00
2024-05-09T03:19:37.346Z,100444.00
2024-05-09T03:21:09.831Z,100448.00
2024-05-09T03:22:41.956Z,100443.00
2024-05-09T03:24:13.984Z,100451.00
2024-05-09T03:25:46.025Z,100442.00
2024-05-09T03:27:18.277Z,100455.00
2024-05-09T03:28:50.390Z,100444.00
2024-05-09T03:30:35.796Z,100451.00
2024-05-09T03:32:13.105Z,100454.00
2024-05-09T03:33:45.541Z,100456.00
2024-05-09T03:35:17.684Z,100444.00
2024-05-09T03:36:49.802Z,100444.00
2024-05-09T03:38:21.875Z,100441.00
2024-05-09T03:39:54.089Z,100442.00
2024-05-09T03:41:26.198Z,100442.00
2024-05-09T03:42:58.778Z,100439.00
2024-05-09T03:44:30.920Z,100445.00
2024-05-09T03:46:03.132Z,100449.00
2024-05-09T03:47:35.584Z,100447.00
2024-05-09T03:49:08.183Z,100455.00
2024-05-09T03:50:40.989Z,100450.00
2024-05-09T03:52:13.135Z,100445.00
2024-05-09T03:53:45.171Z,100444.00
2024-05-09T03:55:17.342Z,100452.00
2024-05-09T03:56:49.380Z,100444.00
2024-05-09T03:58:21.507Z,100450.00
2024-05-09T03:59:53.510Z,100449.00
2024-05-09T04:01:25.830Z,100450.00
2024-05-09T04:02:59.821Z,100451.00
2024-05-09T04:04:32.289Z,100455.00
2024-05-09T04:06:04.852Z,100451.00
2024-05-09T04:07:38.022Z,100455.00
2024-05-09T04:09:10.025Z,100463.00
2024-05-09T04:10:42.181Z,100459.00
2024-05-09T04:12:14.291Z,100458.00
2024-05-09T04:13:46.396Z,100461.00
2024-05-09T04:15:18.492Z,100456.00
2024-05-09T04:16:50.714Z,100454.00
2024-05-09T04:18:22.856Z,100454.00
2024-05-09T04:19:55.612Z,100450.00
2024-05-09T04:21:28.195Z,100465.00
2024-05-09T04:23:00.343Z,100463.00
2024-05-09T04:24:32.385Z,100464.00
2024-05-09T04:26:05.066Z,100460.00
2024-05-09T04:27:37.228Z,100451.00
2024-05-09T04:29:09.312Z,100449.00
2024-05-09T04:30:42.287Z,100457.00
2024-05-09T04:32:14.946Z,100460.00
2024-05-09T04:33:47.093Z,100451.00
2024-05-09T04:35:21.097Z,100464.00
2024-05-09T04:36:53.203Z,100460.00
2024-05-09T04:38:25.383Z,100458.00
2024-05-09T04:39:57.687Z,100453.00
2024-05-09T04:41:30.491Z,100454.00
2024-05-09T04:43:03.592Z,100454.00
2024-05-09T04:44:35.690Z,100457.00
2024-05-09T04:46:07.722Z,100466.00
2024-05-09T04:47:39.915Z,100455.00
2024-05-09T04:49:12.334Z,100458.00
2024-05-09T04:50:44.553Z,100462.00
2024-05-09T04:52:16.722Z,100464.00
2024-05-09T04:53:48.926Z,100463.00
2024-05-09T04:55:21.021Z,100461.00
2024-05-09T04:56:53.431Z,100467.00
2024-05-09T04:58:25.453Z,100457.00
2024-05-09T04:59:58.987Z,100457.00
2024-05-09T05:01:31.033Z,100456.00
2024-05-09T05:03:10.217Z,100462.00
2024-05-09T05:04:44.488Z,100465.00
2024-05-09T05:06:16.725Z,100470.00
2024-05-09T05:07:48.827Z,100464.00
2024-05-09T05:09:20.874Z,100465.00
2024-05-09T05:10:53.065Z,100459.00
2024-05-09T05:12:48.591Z,100468.00
2024-05-09T05:14:20.706Z,100457.00
2024-05-09T05:15:56.941Z,100454.00
2024-05-09T05:17:30.357Z,100460.00
2024-05-09T05:19:02.742Z,100461.00
2024-05-09T05:20:34.896Z,100460.00
2024-05-09T05:22:07.043Z,100452.00
2024-05-09T05:23:40.994Z,100459.00
2024-05-09T05:25:13.154Z,100450.00
2024-05-09T05:26:45.257Z,100454.00
2024-05-09T05:28:17.532Z,100455.00
2024-05-09T05:29:49.666Z,100460.00
2024-05-09T05:31:21.818Z,100455.00
2024-05-09T05:32:54.010Z,100456.00
2024-05-09T05:34:26.110Z,100455.00
2024-05-09T05:35:58.144Z,100464.00
2024-05-09T05:37:30.234Z,100461.00
2024-05-09T05:39:02.289Z,100464.00
2024-05-09T05:40:40.352Z,100457.00
2024-05-09T05:42:13.011Z,100468.00
2024-05-09T05:43:45.149Z,100469.00
2024-05-09T05:45:17.165Z,100460.00
2024-05-09T05:46:49.316Z,100464.00
2024-05-09T05:48:21.562Z,100455.00
2024-05-09T05:49:53.740Z,100467.00
2024-05-09T05:51:27.005Z,100463.00
2024-05-09T05:52:59.078Z,100471.00
2024-05-09T05:54:31.138Z,100465.00
2024-05-09T05:56:04.403Z,100474.00
2024-05-09T05:57:36.515Z,100473.00
2024-05-09T05:59:08.548Z,100468.00
2024-05-09T06:00:42.096Z,100468.00
2024-05-09T06:02:14.822Z,100467.00
2024-05-09T06:03:47.197Z,100475.00
2024-05-09T06:05:19.538Z,100475.00
2024-05-09T06:06:52.554Z,100472.00
2024-05-09T06:08:27.119Z,100476.00
2024-05-09T06:10:00.916Z,100473.00
2024-05-09T06:11:33.103Z,100469.00
2024-05-09T06:13:05.287Z,100476.00
2024-05-09T06:14:37.565Z,100467.00
2024-05-09T06:16:09.694Z,100463.00
2024-05-09T06:17:41.885Z,100457.00
2024-05-09T06:19:14.150Z,100459.00
2024-05-09T06:20:46.307Z,100460.00
2024-05-09T06:22:18.468Z,100450.00
2024-05-09T06:23:50.669Z,100460.00
2024-05-09T06:25:23.303Z,100462.00
2024-05-09T06:26:55.358Z,100456.00
2024-05-09T06:28:27.336Z,100456.00
2024-05-09T06:29:59.394Z,100457.00
2024-05-09T06:31:31.463Z,100466.00
2024-05-09T06:33:05.966Z,100457.00
2024-05-09T06:34:38.361Z,100459.00
2024-05-09T06:36:10.520Z,100458.00
2024-05-09T06:37:42.552Z,100461.00
2024-05-09T06:39:14.738Z,100457.00
2024-05-09T06:40:46.841Z,100451.00
2024-05-09T06:42:18.911Z,100453.00
2024-05-09T06:43:51.024Z,100453.00
2024-05-09T06:45:23.262Z,100451.00
2024-05-09T06:46:58.062Z,100448.00
2024-05-09T06:48:31.710Z,100452.00
2024-05-09T06:50:08.212Z,100457.00
2024-05-09T06:51:42.481Z,100448.00
2024-05-09T06:53:15.528Z,100458.00
2024-05-09T06:54:47.657Z,100455.00
2024-05-09T06:56:19.743Z,100456.00
2024-05-09T06:57:51.815Z,100443.00
2024-05-09T06:59:23.884Z,100454.00
2024-05-09T07:00:55.972Z,100449.00
2024-05-09T07:02:28.121Z,100452.00
2024-05-09T07:04:00.330Z,100445.00
2024-05-09T07:05:33.235Z,100454.00
2024-05-09T07:07:07.395Z,100454.00
2024-05-09T07:08:39.544Z,100448.00
2024-05-09T07:10:21.582Z,100449.00
2024-05-09T07:11:57.642Z,100451.00
2024-05-09T07:13:29.745Z,100447.00
2024-05-09T07:15:01.792Z,100441.00
2024-05-09T07:16:34.395Z,100438.00
2024-05-09T07:18:20.598Z,100451.00
2024-05-09T07:19:53.533Z,100444.00
2024-05-09T07:21:26.020Z,100447.00
2024-05-09T07:22:58.668Z,100438.00
2024-05-09T07:24:30.888Z,100451.00
2024-05-09T07:26:02.946Z,100446.00
2024-05-09T07:27:35.206Z,100441.00
2024-05-09T07:29:07.325Z,100441.00
2024-05-09T07:30:39.484Z,100443.00
2024-05-09T07:32:11.662Z,100448.00
2024-05-09T07:33:43.853Z,100443.00
2024-05-09T07:35:16.150Z,100440.00
2024-05-09T07:36:48.260Z,100433.00
2024-05-09T07:38:20.483Z,100449.00
2024-05-09T07:39:52.541Z,100436.00
2024-05-09T07:41:24.678Z,100442.00
2024-05-09T07:42:56.679Z,100431.00
2024-05-09T07:44:30.393Z,100440.00
2024-05-09T07:48:29.177Z,100434.00
2024-05-09T07:50:53.878Z,100431.00
2024-05-09T07:53:33.931Z,100420.00
2024-05-09T07:54:31.036Z,100427.00
2024-05-09T07:56:03.613Z,100431.00
2024-05-09T07:57:35.942Z,100430.00
2024-05-09T07:59:08.066Z,100433.00
2024-05-09T08:00:40.198Z,100425.00
2024-05-09T08:02:12.532Z,100421.00
2024-05-09T08:03:45.126Z,100430.00
2024-05-09T08:05:17.466Z,100433.00
2024-05-09T08:06:49.604Z,100421.00
2024-05-09T08:08:23.388Z,100417.00
2024-05-09T08:09:55.530Z,100427.00
2024-05-09T08:11:27.789Z,100420.00
2024-05-09T08:12:59.833Z,100418.00
2024-05-09T08:14:32.063Z,100423.00
2024-05-09T08:16:04.732Z,100422.00
2024-05-09T08:17:36.942Z,100418.00
2024-05-09T08:19:09.126Z,100420.00
2024-05-09T08:20:42.283Z,100421.00
2024-05-09T08:22:15.276Z,100433.00
2024-05-09T08:23:47.383Z,100424.00
2024-05-09T08:25:19.500Z,100431.00
2024-05-09T08:26:51.593Z,100424.00
2024-05-09T08:28:23.792Z,100421.00
2024-05-09T08:29:55.900Z,100419.00
2024-05-09T08:31:27.997Z,100430.00
2024-05-09T08:33:00.103Z,100421.00
2024-05-09T08:34:32.173Z,100424.00
2024-05-09T08:36:04.464Z,100427.00
2024-05-09T08:37:38.920Z,100424.00
2024-05-09T08:39:12.523Z,100425.00
2024-05-09T08:40:44.756Z,100429.00
2024-05-09T08:42:21.053Z,100421.00
2024-05-09T08:43:53.071Z,100423.00
2024-05-09T08:45:26.593Z,100417.00
2024-05-09T08:46:59.818Z,100424.00
2024-05-09T08:48:36.318Z,100424.00
2024-05-09T08:50:20.250Z,100421.00
2024-05-09T08:52:01.151Z,100424.00
2024-05-09T08:53:33.708Z,100428.00
2024-05-09T08:55:06.437Z,100415.00
2024-05-09T08:56:45.283Z,100417.00
2024-05-09T08:58:19.368Z,100418.00
2024-05-09T08:59:53.892Z,100418.00
2024-05-09T09:01:30.932Z,100416.00
2024-05-09T09:03:05.740Z,100411.00
2024-05-09T09:04:43.009Z,100412.00
2024-05-09T09:06:21.416Z,100411.00
2024-05-09T09:07:53.456Z,100418.00
2024-05-09T09:09:27.518Z,100417.00
2024-05-09T09:10:59.818Z,100424.00
2024-05-09T09:12:32.397Z,100410.00
2024-05-09T09:14:04.464Z,100419.00
2024-05-09T09:15:48.052Z,100411.00
2024-05-09T09:17:20.152Z,100417.00
2024-05-09T09:18:53.412Z,100402.00
2024-05-09T09:20:34.159Z,100405.00
2024-05-09T09:22:09.391Z,100411.00
2024-05-09T09:23:41.564Z,100405.00
2024-05-09T09:25:13.714Z,100406.00
2024-05-09T09:26:57.415Z,100396.00
2024-05-09T09:28:37.568Z,100408.00
2024-05-09T09:30:22.927Z,100401.00
2024-05-09T09:32:10.587Z,100409.00
2024-05-09T09:33:43.325Z,100406.00
2024-05-09T09:35:16.975Z,100413.00
2024-05-09T09:38:24.154Z,100404.00
2024-05-09T09:39:58.789Z,100397.00
2024-05-09T09:41:32.487Z,100400.00
2024-05-09T09:43:08.051Z,100405.00
2024-05-09T09:44:42.408Z,100402.00
2024-05-09T09:46:19.412Z,100397.00
2024-05-09T09:48:00.023Z,100398.00
2024-05-09T09:49:36.851Z,100395.00
2024-05-09T09:51:09.836Z,100401.00
2024-05-09T09:52:41.918Z,100399.00
2024-05-09T09:54:14.163Z,100403.00
2024-05-09T09:55:48.190Z,100404.00
2024-05-09T09:57:21.393Z,100402.00
2024-05-09T09:58:56.272Z,100400.00
2024-05-09T10:00:33.034Z,100403.00
2024-05-09T10:02:06.302Z,100398.00
2024-05-09T10:03:38.892Z,100405.00
2024-05-09T10:05:11.583Z,100398.00
2024-05-09T10:06:56.651Z,100401.00
2024-05-09T10:08:29.851Z,100402.00
2024-05-09T10:10:02.005Z,100405.00
2024-05-09T10:11:42.073Z,100400.00
2024-05-09T10:13:21.143Z,100397.00
2024-05-09T10:14:54.664Z,100393.00
2024-05-09T10:16:31.551Z,100386.00
2024-05-09T10:18:07.344Z,100384.00
2024-05-09T10:19:39.572Z,100391.00
2024-05-09T10:21:19.643Z,100391.00
2024-05-09T10:22:51.763Z,100389.00
2024-05-09T10:24:24.402Z,100387.00
2024-05-09T10:26:01.124Z,100375.00
2024-05-09T10:27:33.976Z,100380.00
2024-05-09T10:29:17.473Z,100381.00
2024-05-09T10:31:03.283Z,100377.00
2024-05-09T10:32:40.789Z,100391.00
2024-05-09T10:34:34.545Z,100378.00
2024-05-09T10:36:13.681Z,100381.00
2024-05-09T10:37:46.529Z,100384.00
2024-05-09T10:39:22.824Z,100374.00
2024-05-09T10:40:57.140Z,100372.00
2024-05-09T10:42:30.145Z,100374.00
2024-05-09T10:44:02.258Z,100379.00
2024-05-09T10:45:35.640Z,100379.00
2024-05-09T10:47:07.919Z,100368.00
2024-05-09T10:48:43.539Z,100368.00
2024-05-09T10:50:22.576Z,100367.00
2024-05-09T10:52:04.163Z,100377.00
2024-05-09T10:53:43.463Z,100370.00
2024-05-09T10:55:15.666Z,100370.00
2024-05-09T10:56:56.845Z,100370.00
2024-05-09T10:58:28.880Z,100371.00
2024-05-09T11:00:01.741Z,100366.00
2024-05-09T11:01:34.213Z,100369.00
2024-05-09T11:03:06.541Z,100366.00
2024-05-09T11:04:40.297Z,100364.00
2024-05-09T11:06:14.252Z,100358.00
2024-05-09T11:07:46.383Z,100355.00
2024-05-09T11:09:18.516Z,100359.00
2024-05-09T11:10:53.601Z,100352.00
2024-05-09T11:12:26.582Z,100353.00
2024-05-09T11:13:58.580Z,100353.00
2024-05-09T11:15:40.394Z,100351.00
2024-05-09T11:17:12.426Z,100354.00
2024-05-09T11:18:52.300Z,100358.00
2024-05-09T11:20:35.701Z,100353.00
2024-05-09T11:22:08.384Z,100352.00
2024-05-09T11:23:40.928Z,100351.00
2024-05-09T11:25:13.294Z,100351.00
2024-05-09T11:26:45.504Z,100350.00
2024-05-09T11:28:21.939Z,100350.00
2024-05-09T11:29:54.110Z,100349.00
2024-05-09T11:31:26.278Z,100349.00
2024-05-09T11:32:59.077Z,100338.00
2024-05-09T11:34:31.323Z,100349.00
2024-05-09T11:36:03.655Z,100344.00
2024-05-09T11:37:37.854Z,100337.00
2024-05-09T11:39:10.030Z,100343.00
2024-05-09T11:40:42.405Z,100340.00
2024-05-09T11:42:14.568Z,100343.00
2024-05-09T11:43:46.603Z,100330.00
2024-05-09T11:45:18.646Z,100342.00
2024-05-09T11:46:50.811Z,100331.00
2024-05-09T11:48:23.478Z,100335.00
2024-05-09T11:49:58.779Z,100330.00
2024-05-09T11:51:30.876Z,100325.00
2024-05-09T11:53:03.170Z,100330.00
2024-05-09T11:54:35.424Z,100322.00
2024-05-09T11:56:07.759Z,100319.00
2024-05-09T11:57:39.971Z,100317.00
2024-05-09T11:59:12.096Z,100310.00
2024-05-09T12:00:44.712Z,100315.00
2024-05-09T12:02:17.572Z,100309.00
2024-05-09T12:03:51.352Z,100312.00
2024-05-09T12:05:23.581Z,100315.00
2024-05-09T12:06:55.895Z,100318.00
2024-05-09T12:08:28.334Z,100311.00
2024-05-09T12:10:00.422Z,100307.00
2024-05-09T12:11:32.698Z,100313.00
2024-05-09T12:13:06.805Z,100306.00
2024-05-09T12:14:39.997Z,100299.00
2024-05-09T12:16:12.081Z,100310.00
2024-05-09T12:17:45.211Z,100308.00
2024-05-09T12:19:18.278Z,100301.00
2024-05-09T12:20:50.451Z,100303.00
2024-05-09T12:22:22.489Z,100303.00
2024-05-09T12:23:54.523Z,100295.00
2024-05-09T12:25:26.643Z,100306.00
2024-05-09T12:26:59.080Z,100306.00
2024-05-09T12:28:31.224Z,100300.00
2024-05-09T12:30:04.617Z,100302.00
2024-05-09T12:31:39.139Z,100298.00
2024-05-09T12:33:13.077Z,100302.00
2024-05-09T12:34:45.702Z,100301.00
2024-05-09T12:36:17.873Z,100306.00
2024-05-09T12:37:49.975Z,100295.00
2024-05-09T12:39:22.011Z,100298.00
2024-05-09T12:40:54.488Z,100300.00
2024-05-09T12:42:28.097Z,100288.00
2024-05-09T12:44:01.944Z,100290.00
2024-05-09T12:45:34.162Z,100299.00
2024-05-09T12:47:06.260Z,100290.00
2024-05-09T12:48:38.576Z,100288.00
2024-05-09T12:50:21.778Z,100279.00
2024-05-09T12:51:57.457Z,100287.00
2024-05-09T12:53:29.480Z,100288.00
2024-05-09T12:55:01.595Z,100276.00
2024-05-09T12:56:33.809Z,100278.00
2024-05-09T12:58:06.217Z,100279.00
2024-05-09T12:59:38.406Z,100279.00
2024-05-09T13:01:10.544Z,100271.00
2024-05-09T13:02:42.682Z,100274.00
2024-05-09T13:04:14.897Z,100280.00
2024-05-09T13:05:47.316Z,100270.00
2024-05-09T13:07:19.657Z,100273.00
2024-05-09T13:08:51.923Z,100274.00
2024-05-09T13:10:31.191Z,100279.00
2024-05-09T13:12:05.737Z,100266.00
2024-05-09T13:13:37.761Z,100267.00
2024-05-09T13:15:09.768Z,100269.00
2024-05-09T13:16:41.998Z,100269.00
2024-05-09T13:18:14.191Z,100269.00
2024-05-09T13:19:46.313Z,100255.00
2024-05-09T13:21:18.326Z,100261.00
2024-05-09T13:22:50.413Z,100253.00
2024-05-09T13:24:22.451Z,100267.00
2024-05-09T13:25:54.750Z,100250.00
2024-05-09T13:27:26.838Z,100258.00
2024-05-09T13:28:58.916Z,100263.00
2024-05-09T13:30:39.130Z,100260.00
2024-05-09T13:32:13.696Z,100256.00
2024-05-09T13:33:45.995Z,100249.00
2024-05-09T13:35:18.600Z,100251.00
2024-05-09T13:36:50.769Z,100255.00
2024-05-09T13:38:22.931Z,100251.00
2024-05-09T13:39:55.169Z,100257.00
2024-05-09T13:41:27.256Z,100251.00
2024-05-09T13:42:59.455Z,100247.00
2024-05-09T13:44:31.672Z,100256.00
2024-05-09T13:46:04.258Z,100255.00
2024-05-09T13:47:36.602Z,100249.00
2024-05-09T13:49:11.755Z,100256.00
2024-05-09T13:50:44.490Z,100255.00
2024-05-09T13:52:17.161Z,100249.00
2024-05-09T13:53:49.352Z,100244.00
2024-05-09T13:55:21.423Z,100241.00
2024-05-09T13:56:53.753Z,100246.00
2024-05-09T13:58:26.298Z,100241.00
2024-05-09T13:59:58.425Z,100234.00
2024-05-09T14:01:30.574Z,100231.00
2024-05-09T14:03:02.831Z,100228.00
2024-05-09T14:04:35.041Z,100235.00
2024-05-09T14:06:10.533Z,100229.00
2024-05-09T14:07:44.345Z,100240.00
2024-05-09T14:09:16.686Z,100232.00
2024-05-09T14:10:49.386Z,100224.00
2024-05-09T14:12:21.675Z,100221.00
2024-05-09T14:13:53.786Z,100227.00
2024-05-09T14:15:25.824Z,100222.00
2024-05-09T14:16:57.920Z,100230.00
2024-05-09T14:18:30.249Z,100222.00
2024-05-09T14:20:02.998Z,100213.00
2024-05-09T14:21:35.326Z,100220.00
2024-05-09T14:23:07.396Z,100223.00
2024-05-09T14:24:39.692Z,100214.00
2024-05-09T14:26:12.007Z,100221.00
2024-05-09T14:27:44.223Z,100218.00
2024-05-09T14:29:16.218Z,100215.00
2024-05-09T14:30:48.439Z,100213.00
2024-05-09T14:32:20.748Z,100212.00
2024-05-09T14:33:53.165Z,100212.00
2024-05-09T14:35:25.289Z,100216.00
2024-05-09T14:36:58.832Z,100214.00
2024-05-09T14:38:30.958Z,100211.00
2024-05-09T14:40:06.902Z,100211.00
2024-05-09T14:41:40.417Z,100203.00
2024-05-09T14:43:14.626Z,100206.00
2024-05-09T14:44:47.153Z,100195.00
2024-05-09T14:46:19.755Z,100202.00
2024-05-09T14:47:51.941Z,100199.00
2024-05-09T14:49:24.111Z,100207.00
2024-05-09T14:50:56.111Z,100203.00
2024-05-09T14:52:28.363Z,100197.00
2024-05-09T14:54:00.362Z,100198.00
2024-05-09T14:55:32.451Z,100199.00
2024-05-09T14:57:05.132Z,100197.00
2024-05-09T14:58:37.267Z,100196.00
2024-05-09T15:00:17.430Z,100194.00
2024-05-09T15:01:57.940Z,100189.00
2024-05-09T15:03:30.130Z,100189.00
2024-05-09T15:05:04.172Z,100187.00
2024-05-09T15:06:40.634Z,100190.00
2024-05-09T15:08:12.964Z,100186.00
2024-05-09T15:09:45.125Z,100180.00
2024-05-09T15:11:17.254Z,100178.00
2024-05-09T15:12:49.438Z,100182.00
2024-05-09T15:14:23.245Z,100181.00
2024-05-09T15:15:55.833Z,100182.00
2024-05-09T15:17:28.424Z,100181.00
2024-05-09T15:19:01.161Z,100178.00
2024-05-09T15:20:36.368Z,100180.00
2024-05-09T15:22:11.690Z,100184.00
2024-05-09T15:23:43.721Z,100181.00
2024-05-09T15:25:15.993Z,100183.00
2024-05-09T15:26:48.190Z,100183.00
2024-05-09T15:28:20.612Z,100186.00
2024-05-09T15:29:52.780Z,100179.00
2024-05-09T15:31:24.933Z,100182.00
2024-05-09T15:32:57.070Z,100180.00
2024-05-09T15:34:29.961Z,100180.00
2024-05-09T15:36:02.319Z,100179.00
2024-05-09T15:37:34.444Z,100181.00
2024-05-09T15:39:06.597Z,100185.00
2024-05-09T15:40:40.568Z,100183.00
2024-05-09T15:42:13.300Z,100174.00
2024-05-09T15:43:45.328Z,100176.00
2024-05-09T15:45:17.971Z,100172.00
2024-05-09T15:46:51.559Z,100175.00
2024-05-09T15:48:23.846Z,100170.00
2024-05-09T15:49:56.071Z,100171.00
2024-05-09T15:51:28.177Z,100175.00
2024-05-09T15:53:00.234Z,100169.00
2024-05-09T15:54:32.331Z,100167.00
2024-05-09T15:56:04.860Z,100172.00
2024-05-09T15:57:37.020Z,100166.00
2024-05-09T15:59:09.143Z,100158.00
2024-05-09T16:00:44.317Z,100157.00
2024-05-09T16:02:18.153Z,100156.00
2024-05-09T16:03:50.664Z,100152.00
2024-05-09T16:05:23.597Z,100148.00
2024-05-09T16:06:56.060Z,100150.00
2024-05-09T16:08:28.242Z,100146.00
2024-05-09T16:10:00.845Z,100153.00
2024-05-09T16:11:32.897Z,100147.00
2024-05-09T16:13:05.094Z,100146.00
2024-05-09T16:14:37.174Z,100144.00
2024-05-09T16:16:09.911Z,100144.00
2024-05-09T16:17:42.170Z,100148.00
2024-05-09T16:19:14.675Z,100147.00
2024-05-09T16:20:49.466Z,100135.00
2024-05-09T16:22:22.543Z,100143.00
2024-05-09T16:23:54.565Z,100140.00
2024-05-09T16:25:26.660Z,100134.00
2024-05-09T16:26:58.897Z,100139.00
2024-05-09T16:28:31.046Z,100136.00
2024-05-09T16:30:07.230Z,100139.00
2024-05-09T16:31:43.840Z,100137.00
2024-05-09T16:34:51.314Z,100134.00
2024-05-09T16:36:23.448Z,100135.00
2024-05-09T16:37:55.683Z,100136.00
2024-05-09T16:39:27.722Z,100141.00
2024-05-09T16:40:59.866Z,100132.00
2024-05-09T16:42:31.996Z,100127.00
2024-05-09T16:44:04.211Z,100131.00
2024-05-09T16:45:37.616Z,100119.00
2024-05-09T16:47:09.876Z,100130.00
2024-05-09T16:48:45.628Z,100118.00
2024-05-09T16:50:25.772Z,100132.00
2024-05-09T16:52:01.202Z,100128.00
2024-05-09T16:53:33.225Z,100131.00
2024-05-09T16:55:05.477Z,100125.00
2024-05-09T16:56:37.687Z,100114.00
2024-05-09T16:58:12.281Z,100129.00
2024-05-09T16:59:45.150Z,100120.00
2024-05-09T17:01:17.316Z,100121.00
2024-05-09T17:02:50.292Z,100129.00
2024-05-09T17:04:22.567Z,100121.00
2024-05-09T17:05:54.993Z,100125.00
2024-05-09T17:07:27.607Z,100123.00
2024-05-09T17:09:08.288Z,100124.00
2024-05-09T17:10:45.795Z,100130.00
2024-05-09T17:12:18.204Z,100119.00
2024-05-09T17:13:50.240Z,100128.00
2024-05-09T17:15:22.318Z,100128.00
2024-05-09T17:16:54.795Z,100125.00
2024-05-09T17:18:27.803Z,100120.00
2024-05-09T17:19:59.929Z,100120.00
2024-05-09T17:21:32.040Z,100117.00
2024-05-09T17:23:06.228Z,100126.00
2024-05-09T17:24:38.724Z,100115.00
2024-05-09T17:26:11.150Z,100119.00
2024-05-09T17:27:43.486Z,100120.00
2024-05-09T17:29:15.657Z,100117.00
2024-05-09T17:30:48.546Z,100129.00
2024-05-09T17:32:20.674Z,100118.00
2024-05-09T17:33:53.161Z,100120.00
2024-05-09T17:35:25.417Z,100116.00
2024-05-09T17:36:57.584Z,100119.00
2024-05-09T17:38:31.006Z,100113.00
2024-05-09T17:40:16.619Z,100115.00
2024-05-09T17:41:49.236Z,100121.00
2024-05-09T17:43:21.606Z,100115.00
2024-05-09T17:44:53.732Z,100112.00
2024-05-09T17:46:25.968Z,100117.00
2024-05-09T17:47:58.501Z,100115.00
2024-05-09T17:49:30.849Z,100116.00
2024-05-09T17:51:02.997Z,100117.00
2024-05-09T17:52:35.018Z,100122.00